Time;durP1;ratioP1;P1;durP2;ratioP2;P2;SDS_P1;SDS_P2;PMS_P1;PMS_P2;Temp;Humidity;BMP_temperature;BMP_pressure;BME280_temperature;BME280_humidity;BME280_pressure;Samples;Min_cycle;Max_cycle;Signal;HPM_P1;HPM_P2
2022/03/11 00:02:23;;;;;;;8.53;7.47;;;6.50;99.40;;;;;;5076531;28;20421;-50
2022/03/11 00:04:48;;;;;;;8.63;7.37;;;6.50;99.40;;;;;;5076129;28;20481;-54
2022/03/11 00:07:14;;;;;;;8.43;7.15;;;6.60;99.30;;;;;;5074460;28;20914;-52
2022/03/11 00:09:41;;;;;;;8.23;7.32;;;6.50;99.30;;;;;;5091246;28;20421;-52
2022/03/11 00:12:07;;;;;;;10.02;7.35;;;6.50;99.90;;;;;;5091077;28;20386;-55
2022/03/11 00:14:33;;;;;;;10.20;7.65;;;6.50;99.50;;;;;;5075385;28;20418;-55
2022/03/11 00:16:59;;;;;;;8.23;7.00;;;6.50;99.40;;;;;;5094177;28;20385;-57
2022/03/11 00:19:24;;;;;;;10.23;7.47;;;6.50;99.50;;;;;;5076680;28;20390;-53
2022/03/11 00:21:51;;;;;;;8.75;7.20;;;6.50;99.90;;;;;;5078049;28;20406;-54
2022/03/11 00:24:16;;;;;;;10.30;7.82;;;6.60;99.90;;;;;;5087822;28;20500;-53
2022/03/11 00:26:42;;;;;;;9.00;7.22;;;6.60;99.90;;;;;;5077298;28;20488;-52
2022/03/11 00:29:07;;;;;;;8.63;7.27;;;6.50;99.90;;;;;;5077113;28;20387;-53
2022/03/11 00:31:33;;;;;;;9.00;7.37;;;6.50;99.90;;;;;;5077676;28;20382;-54
2022/03/11 00:34:01;;;;;;;10.97;7.27;;;6.50;99.90;;;;;;5095489;28;20400;-50
2022/03/11 00:36:27;;;;;;;9.93;7.20;;;6.50;99.90;;;;;;5076901;28;20859;-56
2022/03/11 00:38:53;;;;;;;8.10;7.23;;;6.40;99.90;;;;;;5093605;28;20390;-54
2022/03/11 00:41:18;;;;;;;10.07;7.87;;;6.30;99.90;;;;;;5075548;28;20414;-57
2022/03/11 00:43:44;;;;;;;8.33;7.27;;;6.30;99.90;;;;;;5077176;28;20462;-53
2022/03/11 00:46:22;;;;;;;8.40;7.22;;;6.30;99.90;;;;;;5077971;28;20382;-54
2022/03/11 00:48:47;;;;;;;8.50;7.25;;;6.30;99.90;;;;;;5078414;28;20394;-52
2022/03/11 00:51:13;;;;;;;9.60;7.43;;;6.10;99.90;;;;;;5093786;28;20493;-54
2022/03/11 00:53:38;;;;;;;9.20;7.30;;;6.10;99.90;;;;;;5058512;28;20485;-54
2022/03/11 00:56:04;;;;;;;8.52;7.40;;;5.90;99.90;;;;;;5055295;28;20387;-51
2022/03/11 00:58:29;;;;;;;9.80;7.63;;;5.90;99.90;;;;;;5055306;28;20490;-54
2022/03/11 01:00:55;;;;;;;8.17;7.30;;;5.80;99.90;;;;;;5054409;28;20442;-54
2022/03/11 01:03:20;;;;;;;8.45;6.65;;;5.80;99.90;;;;;;5055302;28;20407;-52
2022/03/11 01:05:46;;;;;;;9.07;6.97;;;5.80;99.90;;;;;;5055219;28;20506;-51
2022/03/11 01:08:11;;;;;;;8.83;7.20;;;5.80;99.90;;;;;;5055352;28;20494;-55
2022/03/11 01:10:38;;;;;;;8.45;7.03;;;5.80;99.90;;;;;;5055356;28;20403;-54
2022/03/11 01:13:06;;;;;;;9.25;7.00;;;5.80;99.90;;;;;;5070896;28;20449;-48
2022/03/11 01:15:32;;;;;;;9.13;6.78;;;5.70;99.90;;;;;;5053817;28;20384;-52
2022/03/11 01:17:57;;;;;;;8.37;6.80;;;5.60;99.90;;;;;;5050900;28;20502;-52
2022/03/11 01:20:23;;;;;;;8.93;7.17;;;5.60;99.90;;;;;;5069538;28;20392;-50
2022/03/11 01:22:48;;;;;;;8.43;6.45;;;5.50;99.90;;;;;;5050968;28;20435;-53
2022/03/11 01:25:14;;;;;;;11.20;6.95;;;5.50;99.90;;;;;;5051696;28;20846;-49
2022/03/11 01:27:40;;;;;;;9.63;6.90;;;5.50;99.90;;;;;;5053434;28;20522;-52
2022/03/11 01:30:09;;;;;;;7.63;6.53;;;5.50;99.90;;;;;;5072029;28;20462;-54
2022/03/11 01:32:35;;;;;;;10.02;6.93;;;5.50;99.90;;;;;;5053700;28;20811;-52
2022/03/11 01:35:01;;;;;;;8.03;6.43;;;5.50;99.90;;;;;;5053744;28;20456;-54
2022/03/11 01:37:26;;;;;;;12.90;7.17;;;5.50;99.90;;;;;;5053275;28;20387;-53
2022/03/11 01:39:52;;;;;;;10.20;6.97;;;5.50;99.90;;;;;;5054669;28;20399;-53
2022/03/11 01:42:17;;;;;;;10.43;7.10;;;5.50;99.90;;;;;;5058360;28;20427;-51
2022/03/11 01:44:43;;;;;;;8.17;6.73;;;5.40;99.90;;;;;;5058387;28;20387;-53
2022/03/11 01:47:08;;;;;;;8.47;6.63;;;5.50;99.90;;;;;;5059005;28;20375;-50
2022/03/11 01:49:34;;;;;;;7.97;6.63;;;5.40;99.90;;;;;;5058824;28;20414;-55
2022/03/11 01:52:00;;;;;;;9.10;6.47;;;5.40;99.90;;;;;;5071289;28;20378;-56
2022/03/11 01:54:25;;;;;;;9.63;6.90;;;5.40;99.90;;;;;;5065782;28;20413;-53
2022/03/11 01:56:51;;;;;;;9.60;6.87;;;5.40;99.90;;;;;;5074086;28;20761;-49
2022/03/11 01:59:17;;;;;;;8.15;6.45;;;5.40;99.90;;;;;;5073485;28;20421;-51
2022/03/11 02:01:43;;;;;;;8.52;6.63;;;5.40;99.90;;;;;;5071329;28;20645;-51
2022/03/11 02:04:09;;;;;;;8.53;6.60;;;5.40;99.90;;;;;;5072254;28;20785;-53
2022/03/11 02:06:35;;;;;;;11.13;6.77;;;5.30;99.90;;;;;;5074615;28;20680;-53
2022/03/11 02:09:02;;;;;;;9.40;6.78;;;5.30;99.90;;;;;;5075599;28;20794;-54
2022/03/11 02:11:27;;;;;;;7.90;6.72;;;5.20;99.90;;;;;;5075113;28;20401;-52
2022/03/11 02:13:59;;;;;;;9.23;6.87;;;5.20;99.90;;;;;;5074715;28;20416;-56
2022/03/11 02:16:30;;;;;;;9.75;7.05;;;5.20;99.90;;;;;;5075872;28;20413;-54
2022/03/11 02:18:56;;;;;;;10.38;6.70;;;5.10;99.90;;;;;;5075899;28;20378;-53
2022/03/11 02:21:23;;;;;;;8.80;6.93;;;5.00;99.90;;;;;;5075023;28;20930;-50
2022/03/11 02:23:54;;;;;;;9.35;6.53;;;5.00;99.90;;;;;;5074838;28;20401;-52
2022/03/11 02:26:21;;;;;;;7.97;6.50;;;5.00;99.90;;;;;;5074352;28;20389;-56
2022/03/11 02:28:48;;;;;;;7.13;5.95;;;5.00;99.90;;;;;;5073672;28;20696;-55
2022/03/11 02:31:14;;;;;;;7.75;6.50;;;4.90;99.90;;;;;;5073326;28;20461;-53
2022/03/11 02:33:40;;;;;;;10.20;6.93;;;5.00;99.90;;;;;;5074966;28;20719;-55
2022/03/11 02:36:06;;;;;;;7.88;6.18;;;4.90;99.90;;;;;;5092918;28;20772;-53
2022/03/11 02:38:32;;;;;;;8.73;6.75;;;4.90;99.90;;;;;;5073639;28;20583;-54
2022/03/11 02:40:58;;;;;;;11.57;6.78;;;4.80;99.90;;;;;;5073139;28;20392;-50
2022/03/11 02:43:24;;;;;;;7.88;6.90;;;4.80;99.90;;;;;;5072961;28;20437;-55
2022/03/11 02:45:50;;;;;;;8.35;6.50;;;4.70;99.90;;;;;;5075600;28;20409;-53
2022/03/11 02:48:16;;;;;;;10.45;6.80;;;4.70;99.90;;;;;;5074889;28;20525;-54
2022/03/11 02:50:42;;;;;;;8.77;7.05;;;4.60;99.90;;;;;;5090247;28;20727;-56
2022/03/11 02:53:08;;;;;;;9.07;6.73;;;4.60;99.90;;;;;;5014369;28;1702067;-53
2022/03/11 02:55:33;;;;;;;8.20;6.70;;;4.60;99.90;;;;;;5076028;28;20410;-54
2022/03/11 02:57:59;;;;;;;8.53;6.87;;;4.60;99.90;;;;;;5075942;28;20810;-56
2022/03/11 03:00:25;;;;;;;9.27;7.03;;;4.60;99.90;;;;;;5077355;28;20482;-53
2022/03/11 03:02:50;;;;;;;7.88;6.60;;;4.60;99.90;;;;;;5074544;28;20436;-52
2022/03/11 03:05:16;;;;;;;11.02;7.25;;;4.50;99.90;;;;;;5076570;28;20382;-54
2022/03/11 03:07:42;;;;;;;9.50;7.45;;;4.50;99.90;;;;;;5075466;28;20390;-52
2022/03/11 03:10:08;;;;;;;10.27;7.00;;;4.50;99.90;;;;;;5072963;28;20390;-53
2022/03/11 03:12:34;;;;;;;9.48;6.95;;;4.50;99.90;;;;;;5071132;28;20405;-49
2022/03/11 03:15:00;;;;;;;10.97;7.13;;;4.50;99.90;;;;;;5072982;28;20419;-56
2022/03/11 03:17:26;;;;;;;9.37;6.93;;;4.40;99.90;;;;;;5090444;28;20480;-51
2022/03/11 03:19:51;;;;;;;9.63;7.10;;;4.40;99.90;;;;;;5071778;28;20630;-51
2022/03/11 03:22:17;;;;;;;10.67;7.43;;;4.40;99.90;;;;;;5071155;28;20485;-52
2022/03/11 03:24:43;;;;;;;11.37;7.50;;;4.40;99.90;;;;;;5071979;28;20681;-54
2022/03/11 03:27:09;;;;;;;10.80;7.63;;;4.30;99.90;;;;;;5073418;28;20428;-55
2022/03/11 03:29:35;;;;;;;12.32;7.90;;;4.30;99.90;;;;;;5073940;28;20382;-52
2022/03/11 03:32:01;;;;;;;10.13;7.07;;;4.30;99.90;;;;;;5089150;28;20453;-55
2022/03/11 03:34:32;;;;;;;9.32;7.32;;;4.20;99.90;;;;;;5071790;28;20732;-54
2022/03/11 03:36:59;;;;;;;8.10;6.95;;;4.10;99.90;;;;;;5092578;28;20765;-57
2022/03/11 03:39:25;;;;;;;9.95;7.93;;;4.10;99.90;;;;;;5073492;28;20405;-52
2022/03/11 03:41:51;;;;;;;11.15;8.05;;;4.10;99.90;;;;;;5070972;28;20471;-54
2022/03/11 03:44:16;;;;;;;11.75;7.90;;;4.10;99.90;;;;;;5073007;28;20379;-54
2022/03/11 03:46:42;;;;;;;10.10;7.73;;;4.10;99.90;;;;;;5074525;28;20389;-53
2022/03/11 03:49:08;;;;;;;10.40;7.63;;;4.00;99.90;;;;;;5075784;28;20456;-55
2022/03/11 03:51:34;;;;;;;10.57;7.78;;;4.10;99.90;;;;;;5074760;28;20849;-53
2022/03/11 03:54:00;;;;;;;10.98;7.75;;;4.10;99.90;;;;;;5057022;28;20408;-51
2022/03/11 03:56:25;;;;;;;11.60;8.10;;;4.10;99.90;;;;;;5070502;28;20527;-50
2022/03/11 03:58:51;;;;;;;11.43;8.00;;;3.90;99.90;;;;;;5052404;28;20375;-52
2022/03/11 04:01:16;;;;;;;12.17;7.67;;;3.80;99.90;;;;;;5053393;28;20564;-53
2022/03/11 04:03:42;;;;;;;11.90;8.10;;;3.80;99.90;;;;;;5071166;28;20403;-54
2022/03/11 04:06:08;;;;;;;9.73;7.73;;;3.80;99.90;;;;;;5071763;28;20470;-54
2022/03/11 04:08:33;;;;;;;10.73;7.00;;;3.80;99.90;;;;;;5072897;28;20488;-53
2022/03/11 04:10:59;;;;;;;11.90;8.20;;;3.80;99.90;;;;;;5054097;28;20548;-54
2022/03/11 04:13:24;;;;;;;11.43;7.63;;;3.80;99.90;;;;;;5053594;28;20403;-55
2022/03/11 04:15:50;;;;;;;10.40;7.73;;;3.80;99.90;;;;;;5053820;28;20718;-51
2022/03/11 04:18:15;;;;;;;11.03;7.83;;;3.70;99.90;;;;;;5055497;28;20451;-50
2022/03/11 04:20:41;;;;;;;12.15;8.32;;;3.80;99.90;;;;;;5071418;28;20391;-53
2022/03/11 04:23:07;;;;;;;11.60;7.78;;;3.70;99.90;;;;;;5053453;28;20415;-50
2022/03/11 04:25:32;;;;;;;10.93;7.82;;;3.70;99.90;;;;;;5072452;28;20391;-53
2022/03/11 04:27:58;;;;;;;11.17;7.50;;;3.70;99.90;;;;;;5071875;28;20371;-51
2022/03/11 04:30:24;;;;;;;10.10;7.70;;;3.70;99.90;;;;;;5054765;28;20398;-55
2022/03/11 04:32:50;;;;;;;10.98;8.38;;;3.70;99.90;;;;;;5071602;28;20384;-52
2022/03/11 04:35:15;;;;;;;10.18;7.68;;;3.70;99.90;;;;;;5053509;28;20390;-55
2022/03/11 04:37:41;;;;;;;10.38;7.80;;;3.70;99.90;;;;;;5068705;28;20391;-54
2022/03/11 04:40:07;;;;;;;11.05;8.13;;;3.60;99.90;;;;;;5067102;28;20555;-55
2022/03/11 04:42:33;;;;;;;10.95;8.25;;;3.60;99.90;;;;;;5068025;28;20665;-56
2022/03/11 04:44:58;;;;;;;11.23;7.88;;;3.60;99.90;;;;;;5069161;28;20468;-54
2022/03/11 04:47:24;;;;;;;11.23;8.13;;;3.60;99.90;;;;;;5068281;28;20772;-54
2022/03/11 04:49:49;;;;;;;11.53;8.23;;;3.50;99.90;;;;;;5069496;28;20372;-52
2022/03/11 04:52:15;;;;;;;12.33;8.37;;;3.50;99.90;;;;;;5049966;28;20399;-57
2022/03/11 04:54:40;;;;;;;10.63;8.20;;;3.50;99.90;;;;;;5066296;28;20413;-54
2022/03/11 04:57:06;;;;;;;12.17;8.40;;;3.50;99.90;;;;;;5070956;28;20401;-54
2022/03/11 04:59:32;;;;;;;9.87;7.53;;;3.40;99.90;;;;;;5071339;28;20382;-53
2022/03/11 05:01:57;;;;;;;10.83;8.43;;;3.50;99.90;;;;;;5087331;28;20405;-55
2022/03/11 05:04:22;;;;;;;11.50;8.60;;;3.50;99.90;;;;;;5068978;28;20474;-54
2022/03/11 05:06:48;;;;;;;12.37;8.57;;;3.40;99.90;;;;;;5067658;28;20473;-53
2022/03/11 05:09:14;;;;;;;10.17;7.93;;;3.30;99.90;;;;;;5084908;28;20406;-57
2022/03/11 05:11:39;;;;;;;12.10;8.77;;;3.30;99.90;;;;;;5066835;28;20447;-55
2022/03/11 05:14:05;;;;;;;10.50;8.07;;;3.20;99.90;;;;;;5066147;28;20488;-53
2022/03/11 05:16:30;;;;;;;9.53;7.73;;;3.10;99.90;;;;;;5065949;28;20638;-55
2022/03/11 05:18:56;;;;;;;13.40;8.57;;;3.20;99.90;;;;;;5084152;28;20409;-54
2022/03/11 05:21:21;;;;;;;11.50;8.20;;;3.20;99.90;;;;;;5066792;28;20380;-56
2022/03/11 05:23:48;;;;;;;11.07;7.90;;;3.10;99.90;;;;;;5068502;28;20410;-57
2022/03/11 05:26:26;;;;;;;11.68;8.15;;;3.00;99.90;;;;;;5070347;28;20787;-55
2022/03/11 05:28:53;;;;;;;12.90;8.18;;;3.00;99.90;;;;;;5071447;28;20443;-55
2022/03/11 05:31:18;;;;;;;13.07;8.47;;;3.00;99.90;;;;;;5071758;28;20460;-57
2022/03/11 05:33:44;;;;;;;10.77;7.70;;;3.00;99.90;;;;;;5073063;28;20485;-54
2022/03/11 05:36:09;;;;;;;11.70;8.13;;;3.10;99.90;;;;;;5072907;28;20382;-55
2022/03/11 05:38:35;;;;;;;11.63;8.60;;;3.10;99.90;;;;;;5070945;28;20393;-55
2022/03/11 05:41:00;;;;;;;12.25;8.25;;;3.00;99.90;;;;;;5070533;28;20690;-57
2022/03/11 05:43:26;;;;;;;12.03;7.93;;;3.00;99.90;;;;;;5069232;28;20413;-54
2022/03/11 05:45:51;;;;;;;10.33;8.10;;;2.90;99.90;;;;;;5067947;28;20496;-54
2022/03/11 05:48:17;;;;;;;10.73;8.23;;;2.80;99.90;;;;;;5067847;28;20587;-52
2022/03/11 05:50:42;;;;;;;11.30;7.77;;;2.80;99.90;;;;;;5085935;28;20386;-53
2022/03/11 05:53:08;;;;;;;12.20;8.32;;;2.80;99.90;;;;;;5065777;28;21115;-52
2022/03/11 05:55:33;;;;;;;12.07;8.33;;;2.80;99.90;;;;;;5066228;28;20568;-53
2022/03/11 05:57:59;;;;;;;15.67;8.63;;;2.80;99.90;;;;;;5067764;28;20439;-57
2022/03/11 06:00:25;;;;;;;11.05;7.97;;;2.80;99.90;;;;;;5066703;28;20382;-54
2022/03/11 06:02:50;;;;;;;12.43;8.23;;;2.80;99.90;;;;;;5065862;28;20666;-55
2022/03/11 06:05:16;;;;;;;10.10;8.00;;;2.80;99.90;;;;;;5063641;28;20750;-55
2022/03/11 06:07:41;;;;;;;10.40;7.70;;;2.80;99.90;;;;;;5063145;28;20378;-57
2022/03/11 06:10:07;;;;;;;12.90;8.07;;;2.80;99.90;;;;;;5060348;28;20382;-55
2022/03/11 06:12:33;;;;;;;11.48;8.25;;;2.80;99.90;;;;;;5061805;28;20808;-54
2022/03/11 06:14:59;;;;;;;11.68;7.80;;;2.70;99.90;;;;;;5082098;28;20606;-55
2022/03/11 06:17:24;;;;;;;11.80;7.53;;;2.70;99.90;;;;;;5065343;28;20382;-56
2022/03/11 06:19:50;;;;;;;11.30;7.90;;;2.70;99.90;;;;;;5065059;28;20419;-56
2022/03/11 06:22:15;;;;;;;10.98;7.75;;;2.80;99.90;;;;;;5064680;28;20413;-55
2022/03/11 06:24:42;;;;;;;12.30;8.40;;;2.80;99.90;;;;;;5080093;28;20898;-55
2022/03/11 06:27:07;;;;;;;11.55;7.93;;;2.90;99.90;;;;;;5066979;28;20603;-56
2022/03/11 06:29:33;;;;;;;11.90;8.70;;;2.90;99.90;;;;;;5068859;28;20511;-57
2022/03/11 06:31:58;;;;;;;10.37;7.60;;;2.90;99.90;;;;;;5070859;28;20657;-53
2022/03/11 06:34:24;;;;;;;11.37;7.77;;;2.80;99.90;;;;;;5071652;28;20508;-54
2022/03/11 06:36:50;;;;;;;10.88;7.75;;;2.80;99.90;;;;;;5072038;28;20794;-53
2022/03/11 06:39:15;;;;;;;11.60;7.93;;;2.80;99.90;;;;;;5069652;28;20389;-59
2022/03/11 06:41:42;;;;;;;11.65;7.78;;;2.80;99.90;;;;;;5087818;28;20766;-57
2022/03/11 06:44:07;;;;;;;11.30;7.75;;;2.80;99.90;;;;;;5072137;28;20473;-56
2022/03/11 06:46:33;;;;;;;10.03;7.33;;;2.80;99.90;;;;;;5073183;28;20481;-58
2022/03/11 06:48:58;;;;;;;11.35;8.30;;;2.90;99.90;;;;;;5073030;28;20374;-57
2022/03/11 06:51:24;;;;;;;11.07;7.70;;;2.90;99.90;;;;;;5091694;28;20679;-56
2022/03/11 06:53:49;;;;;;;12.23;8.27;;;2.80;99.90;;;;;;5071456;28;20402;-53
2022/03/11 06:56:15;;;;;;;10.60;8.13;;;2.90;99.90;;;;;;5071044;28;20397;-52
2022/03/11 06:58:40;;;;;;;11.07;8.00;;;2.80;99.90;;;;;;5072309;28;20386;-55
2022/03/11 07:01:06;;;;;;;12.37;8.50;;;2.80;99.90;;;;;;5069850;28;20382;-54
2022/03/11 07:03:31;;;;;;;11.23;7.73;;;2.90;99.90;;;;;;5086457;28;20705;-57
2022/03/11 07:05:57;;;;;;;11.70;7.63;;;2.90;99.90;;;;;;5068645;28;20382;-57
2022/03/11 07:08:22;;;;;;;10.17;7.67;;;2.80;99.90;;;;;;5070880;28;20507;-56
2022/03/11 07:10:48;;;;;;;11.90;7.93;;;2.80;99.90;;;;;;5070516;28;20764;-54
2022/03/11 07:13:13;;;;;;;10.63;7.50;;;2.90;99.90;;;;;;5069497;28;20618;-57
2022/03/11 07:15:39;;;;;;;12.32;8.07;;;2.90;99.90;;;;;;5067601;28;20383;-54
2022/03/11 07:18:04;;;;;;;9.97;7.53;;;2.90;99.80;;;;;;5082011;28;20809;-54
2022/03/11 07:20:30;;;;;;;11.18;7.72;;;3.00;99.90;;;;;;5080692;28;20497;-52
2022/03/11 07:22:55;;;;;;;12.95;8.05;;;2.90;99.70;;;;;;5062866;28;20409;-55
2022/03/11 07:25:21;;;;;;;11.63;7.80;;;3.00;99.40;;;;;;5063537;28;20382;-56
2022/03/11 07:27:48;;;;;;;13.17;7.63;;;3.00;99.70;;;;;;5063711;28;20568;-56
2022/03/11 07:30:14;;;;;;;11.15;7.70;;;3.00;99.60;;;;;;5079288;28;20412;-54
2022/03/11 07:32:40;;;;;;;10.83;7.37;;;3.00;99.40;;;;;;5063446;28;20786;-58
2022/03/11 07:35:08;;;;;;;11.15;7.78;;;3.00;99.20;;;;;;5065577;28;20421;-55
2022/03/11 07:37:35;;;;;;;10.27;7.18;;;3.00;98.80;;;;;;5067991;28;20382;-57
2022/03/11 07:40:01;;;;;;;19.30;8.95;;;3.10;99.20;;;;;;5067322;28;20450;-53
2022/03/11 07:42:26;;;;;;;13.10;7.93;;;3.10;98.80;;;;;;5083106;28;20446;-57
2022/03/11 07:44:52;;;;;;;15.00;8.33;;;3.10;98.80;;;;;;5067290;28;20439;-54
2022/03/11 07:47:17;;;;;;;10.57;7.67;;;3.10;98.50;;;;;;5067424;28;20382;-52
2022/03/11 07:49:43;;;;;;;13.43;7.82;;;3.20;98.60;;;;;;5067357;28;20382;-55
2022/03/11 07:52:14;;;;;;;12.27;7.70;;;3.20;98.40;;;;;;5065530;28;20813;-51
2022/03/11 07:54:40;;;;;;;10.73;7.38;;;3.20;98.30;;;;;;5064490;28;20409;-58
2022/03/11 07:57:06;;;;;;;11.60;7.82;;;3.20;98.10;;;;;;5063619;28;20386;-55
2022/03/11 07:59:33;;;;;;;11.67;7.67;;;3.30;98.30;;;;;;5065618;28;20378;-53
2022/03/11 08:01:59;;;;;;;11.15;7.85;;;3.30;97.80;;;;;;5083453;28;20374;-54
2022/03/11 08:04:25;;;;;;;12.82;7.93;;;3.30;98.30;;;;;;5061836;28;20378;-55
2022/03/11 08:06:51;;;;;;;11.85;7.38;;;3.40;98.30;;;;;;5080073;28;20722;-54
2022/03/11 08:09:16;;;;;;;11.80;8.18;;;3.40;97.30;;;;;;5046731;28;20685;-55
2022/03/11 08:11:42;;;;;;;12.60;7.38;;;3.40;96.90;;;;;;5065693;28;20390;-54
2022/03/11 08:14:07;;;;;;;12.43;7.53;;;3.40;96.70;;;;;;5083660;28;20386;-54
2022/03/11 08:16:33;;;;;;;9.83;7.10;;;3.40;96.30;;;;;;5066983;28;20390;-53
2022/03/11 08:18:58;;;;;;;13.38;7.15;;;3.40;96.40;;;;;;5085636;28;20466;-54
2022/03/11 08:21:24;;;;;;;12.88;7.72;;;3.50;96.70;;;;;;5086094;28;20389;-56
2022/03/11 08:23:50;;;;;;;11.00;6.95;;;3.50;96.50;;;;;;5083807;28;20636;-53
2022/03/11 08:26:15;;;;;;;10.80;7.03;;;3.60;95.80;;;;;;5068651;28;20484;-53
2022/03/11 08:28:41;;;;;;;11.63;7.43;;;3.50;95.60;;;;;;5084399;28;20392;-54
2022/03/11 08:31:07;;;;;;;12.53;7.27;;;3.60;95.10;;;;;;5064633;28;20405;-57
2022/03/11 08:33:36;;;;;;;11.10;7.40;;;3.60;95.10;;;;;;5065004;28;20674;-55
2022/03/11 08:36:01;;;;;;;13.02;7.25;;;3.60;94.60;;;;;;5064209;28;20381;-53
2022/03/11 08:38:26;;;;;;;13.00;7.70;;;3.60;94.10;;;;;;5066398;28;20546;-55
2022/03/11 08:40:52;;;;;;;9.73;7.23;;;3.60;94.40;;;;;;5066052;28;20678;-55
2022/03/11 08:43:19;;;;;;;11.03;6.90;;;3.70;94.70;;;;;;5066084;28;20398;-56
2022/03/11 08:45:44;;;;;;;12.10;7.68;;;3.80;94.50;;;;;;5064926;28;20403;-57
2022/03/11 08:48:10;;;;;;;15.10;7.45;;;3.80;93.60;;;;;;5065901;28;20654;-52
2022/03/11 08:50:35;;;;;;;11.43;6.90;;;3.80;93.80;;;;;;5066475;28;20385;-56
2022/03/11 08:53:01;;;;;;;10.73;7.40;;;3.70;93.40;;;;;;5067292;28;20447;-54
2022/03/11 08:55:27;;;;;;;12.35;7.63;;;3.80;93.60;;;;;;5067470;28;20394;-56
2022/03/11 08:57:52;;;;;;;10.38;7.30;;;3.80;94.30;;;;;;5086608;28;20397;-53
2022/03/11 09:00:20;;;;;;;12.63;7.80;;;4.00;94.10;;;;;;5068361;28;20397;-52
2022/03/11 09:02:46;;;;;;;12.57;7.43;;;4.00;94.00;;;;;;5081932;28;20394;-58
2022/03/11 09:05:15;;;;;;;10.65;7.55;;;4.10;93.70;;;;;;5062349;28;20392;-52
2022/03/11 09:07:40;;;;;;;14.37;7.47;;;4.20;93.60;;;;;;5079687;28;20374;-53
2022/03/11 09:10:09;;;;;;;12.23;6.93;;;4.20;93.20;;;;;;5063698;28;20385;-57
2022/03/11 09:12:35;;;;;;;12.65;7.53;;;4.30;93.50;;;;;;5064997;28;20386;-52
2022/03/11 09:15:01;;;;;;;12.63;7.40;;;4.40;93.50;;;;;;5063939;28;20412;-55
2022/03/11 09:17:26;;;;;;;11.13;7.47;;;4.40;92.90;;;;;;5060534;28;20389;-57
2022/03/11 09:19:54;;;;;;;14.27;7.63;;;4.40;92.30;;;;;;5081127;28;20386;-54
2022/03/11 09:22:20;;;;;;;10.32;7.28;;;4.30;92.60;;;;;;5081155;28;20393;-53
2022/03/11 09:24:46;;;;;;;10.80;7.00;;;4.40;92.10;;;;;;5063496;28;20397;-55
2022/03/11 09:27:11;;;;;;;12.98;7.20;;;4.40;92.70;;;;;;5080920;28;20404;-55
2022/03/11 09:29:38;;;;;;;9.15;6.47;;;4.50;92.50;;;;;;5061902;28;20520;-55
2022/03/11 09:32:04;;;;;;;11.15;6.72;;;4.60;92.30;;;;;;5057944;28;21045;-56
2022/03/11 09:34:30;;;;;;;11.23;7.13;;;4.70;92.10;;;;;;5081187;28;20381;-52
2022/03/11 09:36:56;;;;;;;9.20;6.80;;;4.80;92.10;;;;;;5063949;28;20481;-54
2022/03/11 09:39:22;;;;;;;11.43;6.87;;;4.80;92.00;;;;;;5065963;28;21069;-51
2022/03/11 09:41:48;;;;;;;9.73;6.88;;;4.90;91.80;;;;;;5062992;28;20598;-52
2022/03/11 09:44:18;;;;;;;11.45;6.25;;;4.80;91.20;;;;;;5061403;28;20386;-51
2022/03/11 09:46:45;;;;;;;9.60;6.68;;;4.90;91.30;;;;;;5062986;28;20439;-54
2022/03/11 09:49:12;;;;;;;9.18;6.20;;;4.90;91.00;;;;;;5081344;28;20670;-52
2022/03/11 09:51:40;;;;;;;10.98;6.85;;;4.90;91.20;;;;;;5063935;28;20381;-54
2022/03/11 09:54:05;;;;;;;9.70;6.70;;;5.00;90.90;;;;;;5042504;28;20466;-52
2022/03/11 09:56:34;;;;;;;13.00;7.20;;;5.20;91.00;;;;;;5042183;28;20461;-51
2022/03/11 09:59:00;;;;;;;11.27;6.95;;;5.20;90.80;;;;;;5038894;28;20490;-56
2022/03/11 10:01:25;;;;;;;11.75;6.90;;;5.30;90.80;;;;;;5044517;28;20395;-52
2022/03/11 10:03:51;;;;;;;10.82;6.85;;;5.30;89.80;;;;;;5046816;28;20407;-53
2022/03/11 10:06:43;;;;;;;10.67;6.80;;;5.40;90.20;;;;;;5046240;28;20387;-53
2022/03/11 10:09:18;;;;;;;10.73;6.55;;;5.40;89.80;;;;;;5064726;28;20504;-55
2022/03/11 10:11:46;;;;;;;11.07;6.82;;;5.50;89.40;;;;;;5046026;28;20387;-54
2022/03/11 10:14:12;;;;;;;10.90;6.53;;;5.50;87.80;;;;;;5045751;28;20434;-55
2022/03/11 10:16:37;;;;;;;11.43;6.70;;;5.50;87.50;;;;;;5067307;28;20383;-55
2022/03/11 10:19:06;;;;;;;12.13;6.63;;;5.50;87.30;;;;;;5053727;28;20461;-55
2022/03/11 10:21:43;;;;;;;9.90;6.60;;;5.50;87.30;;;;;;5070272;28;20435;-57
2022/03/11 10:24:20;;;;;;;9.80;6.80;;;5.60;89.90;;;;;;5052650;28;20492;-57
2022/03/11 10:26:47;;;;;;;11.77;7.80;;;5.70;90.80;;;;;;5054753;28;20399;-58
2022/03/11 10:29:31;;;;;;;12.47;7.20;;;5.80;93.90;;;;;;5054509;28;20503;-57
2022/03/11 10:31:58;;;;;;;8.32;6.13;;;6.20;95.00;;;;;;5050475;28;20670;-57
2022/03/11 10:34:26;;;;;;;10.80;7.10;;;6.20;90.50;;;;;;5067663;28;20663;-52
2022/03/11 10:36:57;;;;;;;9.23;7.00;;;6.20;90.30;;;;;;5052101;28;20737;-54
2022/03/11 10:39:26;;;;;;;10.25;6.93;;;6.30;90.70;;;;;;5051532;28;20402;-53
2022/03/11 10:41:53;;;;;;;10.25;7.03;;;6.60;91.70;;;;;;5054454;28;20387;-55
2022/03/11 10:44:26;;;;;;;10.07;7.13;;;6.90;90.50;;;;;;5070438;28;20407;-57
2022/03/11 10:47:18;;;;;;;9.57;6.88;;;7.30;89.80;;;;;;5051517;28;20776;-55
2022/03/11 10:49:48;;;;;;;10.60;6.75;;;7.60;88.40;;;;;;5046764;28;20383;-55
2022/03/11 10:52:14;;;;;;;10.65;6.85;;;7.90;86.50;;;;;;5049188;28;20383;-57
2022/03/11 10:54:43;;;;;;;10.87;7.20;;;8.30;88.00;;;;;;5061357;28;20400;-57
2022/03/11 10:57:10;;;;;;;9.07;6.82;;;8.40;85.70;;;;;;5071310;28;20387;-55
2022/03/11 10:59:36;;;;;;;9.93;7.10;;;8.60;85.80;;;;;;5071104;28;20377;-55
2022/03/11 11:02:03;;;;;;;8.53;6.17;;;8.80;85.30;;;;;;5090180;28;20382;-57
2022/03/11 11:04:29;;;;;;;10.83;6.70;;;8.60;80.20;;;;;;5074533;28;20474;-55
2022/03/11 11:06:56;;;;;;;13.27;7.13;;;8.80;78.90;;;;;;5072877;28;20447;-55
2022/03/11 11:09:23;;;;;;;14.35;6.75;;;8.60;76.90;;;;;;5071495;28;20393;-53
2022/03/11 11:11:50;;;;;;;11.13;6.82;;;8.80;79.10;;;;;;5072274;28;20394;-54
2022/03/11 11:14:15;;;;;;;10.70;6.88;;;8.70;76.30;;;;;;5069282;28;20390;-57
2022/03/11 11:16:43;;;;;;;10.17;6.40;;;8.90;76.60;;;;;;5070259;28;20390;-54
2022/03/11 11:19:18;;;;;;;11.57;6.07;;;9.20;77.20;;;;;;5089015;28;20670;-57
2022/03/11 11:21:46;;;;;;;9.85;6.65;;;9.40;76.30;;;;;;5087588;28;20813;-54
2022/03/11 11:24:22;;;;;;;9.32;6.43;;;9.70;77.80;;;;;;5067237;28;20417;-55
2022/03/11 11:26:50;;;;;;;13.68;6.85;;;9.80;75.40;;;;;;5068852;28;21000;-56
2022/03/11 11:29:19;;;;;;;8.52;6.40;;;9.80;73.60;;;;;;5071001;28;20386;-57
2022/03/11 11:31:45;;;;;;;9.30;6.37;;;9.70;71.80;;;;;;5071078;28;20539;-57
2022/03/11 11:34:31;;;;;;;9.15;6.57;;;9.60;71.20;;;;;;5068802;28;20810;-57
2022/03/11 11:36:58;;;;;;;9.90;6.18;;;9.70;73.10;;;;;;5067138;28;20458;-57
2022/03/11 11:39:26;;;;;;;6.90;5.80;;;9.80;72.50;;;;;;5084800;28;20719;-55
2022/03/11 11:41:57;;;;;;;10.20;6.53;;;10.30;75.10;;;;;;5066892;28;20389;-54
2022/03/11 11:44:32;;;;;;;13.98;6.88;;;10.50;74.20;;;;;;5069883;28;20393;-57
2022/03/11 11:47:21;;;;;;;10.32;6.72;;;10.40;72.80;;;;;;5067588;28;20439;-55
2022/03/11 11:49:55;;;;;;;8.77;6.78;;;10.40;72.80;;;;;;5070323;28;20421;-53
2022/03/11 11:52:29;;;;;;;10.23;6.80;;;10.50;73.20;;;;;;5069783;28;20403;-55
2022/03/11 11:55:17;;;;;;;7.95;5.85;;;10.50;70.90;;;;;;5088147;28;20393;-55
2022/03/11 11:57:43;;;;;;;10.75;6.75;;;10.60;71.80;;;;;;5067972;28;20890;-55
2022/03/11 12:00:33;;;;;;;9.10;6.50;;;10.80;71.00;;;;;;5069936;28;20382;-52
2022/03/11 12:02:59;;;;;;;8.70;6.30;;;11.10;71.10;;;;;;5088639;28;21002;-57
2022/03/11 12:05:45;;;;;;;10.37;6.07;;;11.40;69.40;;;;;;5088447;28;20974;-56
2022/03/11 12:08:34;;;;;;;11.30;6.40;;;11.80;71.00;;;;;;5070870;28;20392;-52
2022/03/11 12:11:00;;;;;;;7.68;6.13;;;12.00;67.80;;;;;;5072499;28;20382;-56
2022/03/11 12:13:34;;;;;;;10.37;6.47;;;12.10;67.30;;;;;;5072846;28;20381;-53
2022/03/11 12:16:00;;;;;;;9.35;5.65;;;12.00;65.00;;;;;;5072030;28;20483;-56
2022/03/11 12:18:34;;;;;;;10.93;5.63;;;12.10;64.70;;;;;;5091535;28;20757;-57
2022/03/11 12:21:00;;;;;;;10.18;6.38;;;12.10;64.00;;;;;;5074775;28;20382;-53
2022/03/11 12:23:31;;;;;;;8.33;6.00;;;12.20;63.30;;;;;;5074132;28;20413;-55
2022/03/11 12:26:01;;;;;;;7.40;5.32;;;12.50;64.40;;;;;;5074034;28;20476;-52
2022/03/11 12:28:27;;;;;;;10.00;6.10;;;12.60;63.60;;;;;;5073790;28;20378;-55
2022/03/11 12:31:00;;;;;;;11.57;5.93;;;12.60;62.00;;;;;;5072451;28;20386;-54
2022/03/11 12:33:46;;;;;;;11.00;6.35;;;12.70;60.50;;;;;;5069553;28;20434;-55
2022/03/11 12:36:20;;;;;;;9.03;6.13;;;12.90;62.20;;;;;;5071307;28;20412;-57
2022/03/11 12:38:47;;;;;;;7.50;6.00;;;13.00;62.70;;;;;;5071602;28;20393;-55
2022/03/11 12:41:21;;;;;;;8.32;5.90;;;12.90;58.90;;;;;;5069303;28;20436;-55
2022/03/11 12:43:47;;;;;;;7.88;5.80;;;12.60;58.80;;;;;;5070899;28;20647;-54
2022/03/11 12:46:13;;;;;;;9.90;6.40;;;13.00;61.60;;;;;;5087721;28;20428;-52
2022/03/11 12:48:41;;;;;;;8.20;5.97;;;13.20;61.40;;;;;;5066952;28;20390;-55
2022/03/11 12:51:17;;;;;;;8.40;5.83;;;12.90;59.00;;;;;;5084913;28;20399;-57